createdAt,value
2023-05-18T00:00:50.205Z,3.07
2023-05-18T00:01:50.229Z,3.57
2023-05-18T00:02:50.476Z,2.84
2023-05-18T00:03:50.346Z,4.28
2023-05-18T00:04:50.376Z,3.90
2023-05-18T00:05:50.343Z,3.79
2023-05-18T00:06:50.386Z,3.57
2023-05-18T00:07:50.404Z,3.56
2023-05-18T00:08:50.430Z,3.44
2023-05-18T00:09:50.482Z,4.15
2023-05-18T00:10:50.513Z,3.13
2023-05-18T00:11:50.551Z,3.83
2023-05-18T00:12:50.596Z,3.69
2023-05-18T00:13:50.642Z,3.63
2023-05-18T00:14:50.711Z,3.39
2023-05-18T00:15:50.853Z,3.69
2023-05-18T00:16:50.879Z,3.74
2023-05-18T00:17:50.936Z,3.80
2023-05-18T00:18:50.937Z,4.06
2023-05-18T00:19:51.002Z,4.21
2023-05-18T00:20:51.006Z,4.05
2023-05-18T00:21:51.109Z,3.53
2023-05-18T00:22:51.109Z,3.43
2023-05-18T00:23:51.159Z,3.74
2023-05-18T00:24:51.204Z,2.84
2023-05-18T00:25:51.251Z,3.32
2023-05-18T00:26:51.331Z,3.23
2023-05-18T00:27:51.429Z,3.82
2023-05-18T00:28:51.490Z,3.35
2023-05-18T00:29:51.634Z,3.54
2023-05-18T00:30:51.648Z,3.36
2023-05-18T00:31:51.812Z,3.13
2023-05-18T00:32:51.819Z,2.76
2023-05-18T00:33:51.867Z,3.13
2023-05-18T00:34:51.931Z,3.57
2023-05-18T00:35:52.004Z,3.70
2023-05-18T00:36:52.102Z,3.47
2023-05-18T00:37:52.169Z,3.66
2023-05-18T00:38:52.201Z,3.61
2023-05-18T00:39:52.381Z,3.31
2023-05-18T00:40:52.337Z,2.73
2023-05-18T00:41:52.379Z,3.30
2023-05-18T00:42:52.472Z,3.42
2023-05-18T00:43:52.455Z,3.40
2023-05-18T00:44:52.491Z,3.42
2023-05-18T00:45:52.603Z,2.91
2023-05-18T00:46:52.571Z,3.37
2023-05-18T00:47:52.612Z,3.34
2023-05-18T00:48:52.614Z,3.54
2023-05-18T00:49:52.685Z,3.39
2023-05-18T00:50:52.697Z,3.91
2023-05-18T00:51:52.723Z,3.75
2023-05-18T00:52:52.756Z,3.24
2023-05-18T00:53:52.780Z,4.16
2023-05-18T00:54:52.819Z,4.19
2023-05-18T00:55:52.860Z,3.34
2023-05-18T00:56:52.886Z,3.56
2023-05-18T00:57:52.927Z,3.39
2023-05-18T00:58:52.957Z,4.17
2023-05-18T00:59:53.026Z,3.04
2023-05-18T01:00:53.061Z,3.64
2023-05-18T01:01:53.197Z,3.29
2023-05-18T01:02:53.241Z,4.19
2023-05-18T01:03:53.106Z,3.88
2023-05-18T01:04:53.137Z,3.88
2023-05-18T01:05:53.158Z,3.39
2023-05-18T01:06:53.201Z,4.29
2023-05-18T01:07:53.228Z,3.56
2023-05-18T01:08:53.265Z,3.35
2023-05-18T01:09:53.317Z,3.42
2023-05-18T01:10:53.384Z,3.54
2023-05-18T01:11:53.371Z,3.68
2023-05-18T01:12:53.417Z,3.65
2023-05-18T01:13:53.533Z,3.87
2023-05-18T01:14:53.470Z,4.20
2023-05-18T01:15:53.520Z,3.90
2023-05-18T01:16:53.603Z,3.98
2023-05-18T01:17:53.589Z,4.24
2023-05-18T01:18:53.641Z,4.13
2023-05-18T01:19:53.658Z,3.89
2023-05-18T01:20:53.706Z,3.29
2023-05-18T01:21:53.743Z,3.66
2023-05-18T01:22:53.796Z,3.90
2023-05-18T01:23:53.848Z,3.14
2023-05-18T01:24:53.974Z,3.88
2023-05-18T01:25:53.976Z,3.42
2023-05-18T01:26:54.004Z,3.87
2023-05-18T01:27:54.035Z,3.43
2023-05-18T01:28:54.071Z,3.41
2023-05-18T01:29:54.128Z,3.42
2023-05-18T01:30:54.327Z,3.60
2023-05-18T01:31:54.316Z,3.59
2023-05-18T01:32:54.459Z,3.26
2023-05-18T01:33:54.432Z,3.38
2023-05-18T01:34:54.632Z,3.63
2023-05-18T01:35:54.557Z,3.19
2023-05-18T01:36:54.586Z,4.05
2023-05-18T01:37:54.723Z,4.35
2023-05-18T01:38:54.692Z,4.20
2023-05-18T01:39:54.725Z,3.69
2023-05-18T01:40:54.749Z,3.74
2023-05-18T01:41:54.792Z,3.84
2023-05-18T01:42:54.834Z,3.25
2023-05-18T01:43:54.858Z,3.74
2023-05-18T01:44:54.918Z,3.85
2023-05-18T01:45:54.995Z,3.43
2023-05-18T01:46:55.091Z,4.02
2023-05-18T01:47:55.076Z,3.56
2023-05-18T01:48:55.241Z,3.77
2023-05-18T01:49:55.159Z,3.80
2023-05-18T01:50:55.195Z,4.48
2023-05-18T01:51:55.239Z,4.65
2023-05-18T01:52:55.297Z,4.63
2023-05-18T01:53:55.352Z,4.28
2023-05-18T01:54:55.404Z,4.98
2023-05-18T01:55:55.440Z,4.44
2023-05-18T01:56:55.506Z,4.17
2023-05-18T01:57:55.560Z,4.74
2023-05-18T01:58:55.609Z,4.51
2023-05-18T01:59:55.657Z,3.76
2023-05-18T02:00:55.692Z,4.39
2023-05-18T02:01:59.099Z,4.90
2023-05-18T02:02:55.894Z,4.99
2023-05-18T02:03:55.907Z,3.96
2023-05-18T02:04:55.835Z,4.61
2023-05-18T02:05:55.856Z,4.74
2023-05-18T02:06:55.910Z,4.79
2023-05-18T02:07:55.915Z,4.92
2023-05-18T02:08:55.955Z,4.11
2023-05-18T02:09:55.986Z,5.33
2023-05-18T02:10:56.008Z,5.28
2023-05-18T02:11:56.041Z,5.09
2023-05-18T02:12:56.085Z,4.64
2023-05-18T02:13:56.119Z,4.75
2023-05-18T02:14:56.170Z,4.45
2023-05-18T02:15:56.213Z,4.64
2023-05-18T02:16:56.232Z,4.69
2023-05-18T02:17:56.332Z,4.56
2023-05-18T02:18:56.350Z,4.75
2023-05-18T02:19:56.330Z,4.72
2023-05-18T02:20:56.415Z,5.38
2023-05-18T02:21:56.392Z,4.73
2023-05-18T02:22:56.491Z,4.30
2023-05-18T02:23:56.447Z,4.65
2023-05-18T02:24:56.473Z,4.53
2023-05-18T02:25:56.503Z,4.92
2023-05-18T02:26:56.527Z,4.45
2023-05-18T02:27:56.597Z,4.39
2023-05-18T02:28:56.719Z,4.87
2023-05-18T02:29:56.899Z,4.91
2023-05-18T02:30:56.898Z,4.35
2023-05-18T02:31:57.107Z,5.09
2023-05-18T02:32:57.103Z,4.76
2023-05-18T02:33:57.215Z,4.76
2023-05-18T02:34:57.165Z,5.07
2023-05-18T02:35:57.357Z,4.68
2023-05-18T02:36:57.285Z,3.95
2023-05-18T02:37:57.331Z,4.82
2023-05-18T02:38:57.369Z,5.27
2023-05-18T02:39:57.436Z,4.94
2023-05-18T02:40:57.517Z,4.57
2023-05-18T02:41:57.596Z,5.20
2023-05-18T02:42:57.650Z,4.81
2023-05-18T02:43:57.716Z,4.49
2023-05-18T02:44:57.778Z,4.95
2023-05-18T02:45:58.001Z,4.56
2023-05-18T02:46:57.938Z,5.64
2023-05-18T02:47:57.955Z,5.22
2023-05-18T02:48:57.999Z,4.89
2023-05-18T02:49:58.109Z,5.23
2023-05-18T02:50:58.196Z,4.64
2023-05-18T02:51:58.265Z,4.47
2023-05-18T02:52:58.338Z,4.55
2023-05-18T02:53:58.440Z,4.81
2023-05-18T02:54:58.541Z,4.28
2023-05-18T02:55:58.617Z,4.65
2023-05-18T02:56:58.701Z,4.42
2023-05-18T02:57:58.801Z,5.12
2023-05-18T02:58:58.967Z,4.74
2023-05-18T02:59:58.991Z,4.72
2023-05-18T03:00:59.087Z,4.93
2023-05-18T03:01:59.191Z,4.67
2023-05-18T03:02:59.308Z,4.87
2023-05-18T03:03:59.418Z,5.10
2023-05-18T03:04:59.511Z,4.24
2023-05-18T03:05:59.562Z,4.54
2023-05-18T03:06:59.662Z,5.04
2023-05-18T03:07:59.761Z,4.29
2023-05-18T03:08:59.873Z,4.74
2023-05-18T03:09:59.992Z,4.37
2023-05-18T03:11:00.144Z,4.78
2023-05-18T03:12:00.215Z,5.11
2023-05-18T03:13:00.309Z,5.32
2023-05-18T03:14:00.373Z,4.93
2023-05-18T03:15:00.487Z,4.52
2023-05-18T03:16:00.510Z,5.22
2023-05-18T03:17:00.683Z,4.91
2023-05-18T03:18:00.729Z,4.57
2023-05-18T03:19:00.873Z,4.70
2023-05-18T03:20:00.879Z,4.24
2023-05-18T03:21:00.978Z,4.79
2023-05-18T03:22:01.054Z,5.30
2023-05-18T03:23:01.144Z,4.80
2023-05-18T03:24:01.190Z,4.42
2023-05-18T03:25:01.254Z,4.40
2023-05-18T03:26:01.315Z,4.41
2023-05-18T03:27:01.488Z,5.53
2023-05-18T03:28:01.590Z,4.09
2023-05-18T03:29:01.501Z,4.24
2023-05-18T03:30:01.560Z,4.20
2023-05-18T03:31:01.692Z,4.10
2023-05-18T03:32:01.752Z,4.81
2023-05-18T03:33:01.913Z,4.69
2023-05-18T03:34:01.930Z,4.59
2023-05-18T03:35:02.050Z,5.21
2023-05-18T03:36:02.230Z,4.39
2023-05-18T03:37:02.264Z,4.32
2023-05-18T03:38:02.321Z,4.64
2023-05-18T03:39:02.436Z,4.21
2023-05-18T03:40:02.528Z,3.89
2023-05-18T03:41:02.584Z,4.41
2023-05-18T03:42:02.821Z,4.72
2023-05-18T03:43:02.726Z,4.73
2023-05-18T03:44:02.845Z,4.99
2023-05-18T03:45:02.890Z,4.97
2023-05-18T03:46:03.128Z,4.82
2023-05-18T03:47:03.043Z,4.30
2023-05-18T03:48:03.214Z,4.75
2023-05-18T03:49:03.261Z,4.69
2023-05-18T03:50:03.395Z,4.79
2023-05-18T03:51:03.482Z,4.47
2023-05-18T03:52:03.570Z,4.36
2023-05-18T03:53:03.705Z,5.34
2023-05-18T03:54:03.809Z,4.51
2023-05-18T03:55:03.920Z,4.15
2023-05-18T03:56:04.011Z,5.65
2023-05-18T03:57:04.143Z,4.20
2023-05-18T03:58:04.215Z,5.05
2023-05-18T03:59:04.325Z,4.53
2023-05-18T04:00:04.429Z,4.51
2023-05-18T04:01:04.529Z,4.60
2023-05-18T04:02:04.675Z,5.28
2023-05-18T04:03:05.417Z,4.12
2023-05-18T04:04:04.807Z,4.57
2023-05-18T04:05:04.807Z,4.56
2023-05-18T04:06:04.852Z,4.38
2023-05-18T04:07:04.944Z,5.01
2023-05-18T04:08:05.043Z,4.96
2023-05-18T04:09:05.143Z,4.57
2023-05-18T04:10:05.267Z,4.72
2023-05-18T04:11:05.368Z,5.25
2023-05-18T04:12:05.450Z,4.64
2023-05-18T04:13:05.504Z,5.28
2023-05-18T04:14:05.557Z,4.63
2023-05-18T04:15:05.598Z,4.42
2023-05-18T04:16:05.723Z,5.21
2023-05-18T04:17:05.768Z,4.52
2023-05-18T04:18:05.880Z,5.36
2023-05-18T04:19:08.005Z,4.96
2023-05-18T04:20:06.057Z,5.20
2023-05-18T04:21:06.189Z,5.02
2023-05-18T04:22:06.259Z,5.17
2023-05-18T04:23:06.392Z,4.62
2023-05-18T04:24:06.465Z,4.83
2023-05-18T04:25:06.660Z,4.96
2023-05-18T04:26:06.679Z,4.77
2023-05-18T04:27:06.787Z,4.94
2023-05-18T04:28:06.891Z,4.74
2023-05-18T04:29:06.970Z,4.57
2023-05-18T04:30:07.088Z,4.47
2023-05-18T04:31:07.226Z,4.58
2023-05-18T04:32:07.377Z,4.81
2023-05-18T04:33:07.506Z,5.03
2023-05-18T04:34:07.546Z,4.73
2023-05-18T04:35:07.673Z,4.02
2023-05-18T04:36:07.749Z,4.86
2023-05-18T04:37:07.873Z,5.30
2023-05-18T04:38:07.960Z,4.99
2023-05-18T04:39:08.093Z,4.84
2023-05-18T04:40:08.194Z,4.03
2023-05-18T04:41:08.318Z,5.61
2023-05-18T04:42:08.421Z,5.07
2023-05-18T04:43:08.567Z,4.87
2023-05-18T04:44:08.638Z,5.19
2023-05-18T04:45:08.788Z,4.59
2023-05-18T04:46:08.893Z,4.94
2023-05-18T04:47:08.968Z,4.71
2023-05-18T04:48:09.120Z,4.39
2023-05-18T04:49:09.221Z,4.63
2023-05-18T04:50:09.300Z,5.54
2023-05-18T04:51:09.407Z,5.17
2023-05-18T04:52:09.508Z,4.68
2023-05-18T04:53:09.617Z,5.19
2023-05-18T04:54:09.726Z,4.65
2023-05-18T04:55:09.842Z,5.22
2023-05-18T04:56:09.935Z,4.49
2023-05-18T04:57:10.049Z,4.57
2023-05-18T04:58:10.156Z,5.18
2023-05-18T04:59:10.256Z,5.31
2023-05-18T05:00:10.354Z,4.13
2023-05-18T05:01:10.454Z,4.74
2023-05-18T05:02:10.568Z,5.11
2023-05-18T05:03:10.704Z,4.72
2023-05-18T05:04:10.732Z,5.19
2023-05-18T05:05:10.839Z,4.89
2023-05-18T05:06:10.925Z,5.25
2023-05-18T05:07:11.111Z,5.34
2023-05-18T05:08:11.126Z,5.22
2023-05-18T05:09:11.276Z,5.50
2023-05-18T05:10:11.377Z,4.91
2023-05-18T05:11:11.392Z,5.14
2023-05-18T05:12:11.480Z,5.42
2023-05-18T05:13:11.574Z,4.81
2023-05-18T05:14:11.672Z,5.87
2023-05-18T05:15:11.757Z,5.17
2023-05-18T05:16:11.921Z,5.06
2023-05-18T05:17:11.948Z,5.21
2023-05-18T05:18:12.106Z,5.62
2023-05-18T05:19:12.185Z,5.15
2023-05-18T05:20:12.265Z,5.03
2023-05-18T05:21:12.354Z,5.41
2023-05-18T05:22:12.461Z,6.13
2023-05-18T05:23:12.586Z,5.68
2023-05-18T05:24:12.655Z,5.81
2023-05-18T05:25:12.738Z,6.09
2023-05-18T05:26:12.869Z,6.06
2023-05-18T05:27:12.969Z,5.72
2023-05-18T05:28:12.986Z,5.76
2023-05-18T05:29:13.068Z,5.64
2023-05-18T05:30:13.241Z,5.65
2023-05-18T05:31:13.225Z,6.00
2023-05-18T05:32:13.322Z,5.76
2023-05-18T05:33:13.464Z,5.68
2023-05-18T05:34:13.554Z,6.35
2023-05-18T05:35:13.643Z,5.53
2023-05-18T05:36:13.742Z,5.96
2023-05-18T05:37:13.888Z,6.81
2023-05-18T05:38:13.959Z,5.52
2023-05-18T05:39:14.090Z,5.86
2023-05-18T05:40:14.179Z,5.60
2023-05-18T05:41:14.281Z,6.44
2023-05-18T05:42:14.410Z,5.66
2023-05-18T05:43:14.485Z,6.00
2023-05-18T05:44:14.702Z,6.09
2023-05-18T05:45:14.665Z,6.44
2023-05-18T05:46:14.758Z,6.44
2023-05-18T05:47:14.991Z,6.05
2023-05-18T05:48:14.995Z,6.26
2023-05-18T05:49:15.037Z,6.53
2023-05-18T05:50:15.131Z,7.21
2023-05-18T05:51:15.211Z,6.34
2023-05-18T05:52:15.287Z,6.05
2023-05-18T05:53:15.396Z,6.56
2023-05-18T05:54:15.512Z,6.43
2023-05-18T05:55:15.665Z,6.25
2023-05-18T05:56:15.641Z,7.69
2023-05-18T05:57:15.701Z,6.75
2023-05-18T05:58:15.783Z,6.71
2023-05-18T05:59:15.873Z,6.60
2023-05-18T06:00:15.936Z,5.96
2023-05-18T06:01:16.007Z,7.07
2023-05-18T06:02:16.194Z,6.38
2023-05-18T06:03:16.149Z,6.79
2023-05-18T06:04:16.325Z,6.36
2023-05-18T06:05:16.352Z,6.33
2023-05-18T06:06:16.349Z,6.69
2023-05-18T06:07:16.417Z,7.31
2023-05-18T06:08:16.484Z,6.43
2023-05-18T06:09:16.548Z,6.62
2023-05-18T06:10:16.603Z,6.87
2023-05-18T06:11:16.658Z,6.52
2023-05-18T06:12:16.722Z,6.85
2023-05-18T06:13:16.795Z,6.15
2023-05-18T06:14:16.865Z,6.03
2023-05-18T06:15:16.940Z,5.97
2023-05-18T06:16:17.043Z,6.58
2023-05-18T06:17:17.077Z,6.18
2023-05-18T06:18:17.152Z,6.82
2023-05-18T06:19:17.173Z,6.54
2023-05-18T06:20:17.140Z,6.06
2023-05-18T06:21:17.174Z,5.87
2023-05-18T06:22:17.212Z,6.74
2023-05-18T06:23:17.363Z,6.53
2023-05-18T06:24:17.404Z,7.44
2023-05-18T06:25:17.433Z,7.14
2023-05-18T06:26:17.501Z,6.57
2023-05-18T06:27:18.342Z,7.00
2023-05-18T06:28:17.522Z,6.61
2023-05-18T06:29:17.566Z,6.61
2023-05-18T06:30:17.605Z,6.45
2023-05-18T06:31:17.583Z,6.10
2023-05-18T06:32:17.769Z,6.27
2023-05-18T06:33:17.652Z,5.99
2023-05-18T06:34:17.801Z,6.88
2023-05-18T06:35:17.729Z,6.14
2023-05-18T06:36:17.762Z,7.42
2023-05-18T06:37:17.778Z,8.74
2023-05-18T06:38:17.818Z,8.03
2023-05-18T06:39:17.849Z,7.56
2023-05-18T06:40:17.881Z,7.87
2023-05-18T06:41:17.917Z,7.57
2023-05-18T06:42:17.923Z,7.39
2023-05-18T06:43:17.954Z,6.75
2023-05-18T06:44:18.050Z,6.56
2023-05-18T06:45:18.021Z,6.92
2023-05-18T06:46:18.079Z,7.10
2023-05-18T06:47:18.066Z,7.84
2023-05-18T06:48:18.105Z,6.07
2023-05-18T06:49:18.127Z,6.18
2023-05-18T06:50:18.221Z,7.04
2023-05-18T06:51:18.219Z,6.16
2023-05-18T06:52:18.258Z,7.02
2023-05-18T06:53:18.370Z,7.10
2023-05-18T06:54:18.336Z,6.71
2023-05-18T06:55:18.353Z,6.61
2023-05-18T06:56:18.388Z,7.13
2023-05-18T06:57:18.405Z,6.27
2023-05-18T06:58:18.409Z,6.49
2023-05-18T06:59:18.439Z,6.83
2023-05-18T07:00:18.463Z,6.67
2023-05-18T07:01:18.490Z,8.17
2023-05-18T07:02:18.501Z,6.42
2023-05-18T07:03:18.618Z,6.26
2023-05-18T07:04:18.576Z,6.41
2023-05-18T07:05:18.584Z,6.91
2023-05-18T07:06:18.660Z,6.65
2023-05-18T07:07:18.604Z,8.20
2023-05-18T07:08:18.695Z,8.91
2023-05-18T07:09:18.644Z,6.89
2023-05-18T07:10:18.654Z,7.79
2023-05-18T07:11:18.698Z,7.65
2023-05-18T07:12:18.749Z,9.83
2023-05-18T07:13:18.819Z,7.61
2023-05-18T07:14:18.876Z,7.24
2023-05-18T07:15:18.895Z,6.79
2023-05-18T07:16:18.909Z,7.59
2023-05-18T07:17:18.945Z,7.22
2023-05-18T07:18:18.934Z,6.25
2023-05-18T07:19:19.005Z,5.88
2023-05-18T07:20:18.985Z,6.64
2023-05-18T07:21:18.988Z,6.27
2023-05-18T07:22:19.028Z,7.02
2023-05-18T07:23:19.122Z,7.29
2023-05-18T07:24:19.135Z,7.05
2023-05-18T07:25:19.236Z,7.22
2023-05-18T07:26:19.225Z,6.91
2023-05-18T07:27:19.305Z,6.45
2023-05-18T07:28:19.384Z,6.55
2023-05-18T07:29:19.450Z,6.55
2023-05-18T07:30:19.550Z,6.33
2023-05-18T07:31:19.650Z,7.61
2023-05-18T07:32:19.676Z,6.46
2023-05-18T07:33:19.804Z,6.93
2023-05-18T07:34:19.816Z,7.15
2023-05-18T07:35:19.875Z,6.83
2023-05-18T07:36:19.916Z,6.77
2023-05-18T07:37:19.980Z,5.66
2023-05-18T07:38:20.041Z,6.15
2023-05-18T07:39:20.126Z,5.93
2023-05-18T07:40:20.179Z,5.57
2023-05-18T07:41:20.256Z,6.45
2023-05-18T07:42:20.365Z,6.12
2023-05-18T07:43:20.388Z,5.90
2023-05-18T07:44:20.528Z,5.94
2023-05-18T07:45:20.578Z,5.66
2023-05-18T07:46:21.533Z,6.08
2023-05-18T07:47:20.690Z,5.83
2023-05-18T07:48:20.934Z,5.66
2023-05-18T07:49:20.845Z,6.06
2023-05-18T07:50:20.935Z,5.43
2023-05-18T07:51:20.998Z,5.49
2023-05-18T07:52:21.076Z,6.15
2023-05-18T07:53:21.121Z,6.12
2023-05-18T07:54:21.196Z,5.74
2023-05-18T07:55:21.272Z,6.03
2023-05-18T07:56:21.357Z,5.30
2023-05-18T07:57:21.411Z,6.17
2023-05-18T07:58:21.508Z,5.64
2023-05-18T07:59:21.563Z,5.94
2023-05-18T08:00:21.619Z,5.54
2023-05-18T08:01:22.621Z,6.52
2023-05-18T08:02:21.683Z,5.19
2023-05-18T08:03:21.863Z,5.98
2023-05-18T08:04:21.664Z,5.32
2023-05-18T08:05:21.640Z,6.02
2023-05-18T08:06:21.658Z,6.11
2023-05-18T08:07:21.642Z,5.65
2023-05-18T08:08:21.660Z,6.31
2023-05-18T08:09:21.727Z,6.15
2023-05-18T08:10:21.804Z,6.52
2023-05-18T08:11:21.871Z,6.35
2023-05-18T08:12:21.928Z,6.42
2023-05-18T08:13:21.996Z,6.22
2023-05-18T08:14:22.053Z,5.80
2023-05-18T08:15:22.097Z,6.51
2023-05-18T08:16:22.191Z,5.99
2023-05-18T08:17:22.257Z,5.98
2023-05-18T08:18:22.292Z,6.41
2023-05-18T08:19:22.452Z,6.81
2023-05-18T08:20:22.402Z,5.81
2023-05-18T08:21:22.584Z,5.87
2023-05-18T08:22:22.755Z,5.71
2023-05-18T08:23:22.932Z,5.56
2023-05-18T08:24:23.168Z,5.80
2023-05-18T08:25:23.313Z,6.07
2023-05-18T08:26:23.502Z,6.00
2023-05-18T08:27:23.633Z,4.89
2023-05-18T08:28:23.794Z,5.16
2023-05-18T08:29:23.978Z,5.49
2023-05-18T08:30:24.181Z,5.71
2023-05-18T08:31:24.321Z,5.81
2023-05-18T08:32:24.559Z,5.53
2023-05-18T08:33:24.689Z,5.88
2023-05-18T08:34:24.925Z,6.41
2023-05-18T08:35:25.049Z,5.70
2023-05-18T08:36:25.297Z,5.92
2023-05-18T08:37:25.512Z,6.12
2023-05-18T08:38:25.734Z,5.87
2023-05-18T08:39:25.904Z,6.01
2023-05-18T08:40:26.121Z,5.48
2023-05-18T08:41:26.226Z,6.59
2023-05-18T08:42:34.449Z,5.52
2023-05-18T08:43:28.918Z,5.59
2023-05-18T08:44:26.446Z,6.07
2023-05-18T08:45:26.443Z,6.23
2023-05-18T08:46:26.469Z,6.78
2023-05-18T08:47:26.462Z,5.81
2023-05-18T08:48:28.241Z,5.87
2023-05-18T08:49:26.435Z,5.61
2023-05-18T08:50:26.436Z,5.69
2023-05-18T08:51:26.425Z,5.71
2023-05-18T08:52:26.497Z,5.73
2023-05-18T08:53:26.431Z,7.36
2023-05-18T08:54:26.605Z,6.67
2023-05-18T08:55:26.778Z,7.14
2023-05-18T08:56:26.995Z,6.12
2023-05-18T08:57:27.147Z,6.10
2023-05-18T08:58:27.307Z,6.69
2023-05-18T08:59:27.507Z,7.90
2023-05-18T09:00:27.665Z,8.04
2023-05-18T09:01:27.845Z,8.67
2023-05-18T09:02:28.042Z,7.50
2023-05-18T09:03:28.187Z,7.44
2023-05-18T09:04:28.364Z,7.23
2023-05-18T09:05:28.597Z,6.74
2023-05-18T09:06:28.674Z,5.32
2023-05-18T09:07:28.858Z,5.24
2023-05-18T09:08:29.086Z,4.91
2023-05-18T09:09:29.207Z,6.35
2023-05-18T09:10:29.394Z,5.71
2023-05-18T09:11:29.569Z,5.14
2023-05-18T09:12:29.769Z,6.20
2023-05-18T09:13:29.878Z,5.44
2023-05-18T09:14:30.047Z,5.82
2023-05-18T09:15:30.390Z,5.51
2023-05-18T09:16:30.511Z,6.04
2023-05-18T09:17:30.595Z,5.10
2023-05-18T09:18:30.740Z,5.64
2023-05-18T09:19:31.029Z,5.48
2023-05-18T09:20:31.244Z,6.03
2023-05-18T09:21:31.393Z,5.42
2023-05-18T09:22:31.513Z,5.37
2023-05-18T09:23:31.689Z,5.59
2023-05-18T09:24:31.848Z,5.33
2023-05-18T09:25:32.165Z,4.85
2023-05-18T09:26:32.164Z,5.10
2023-05-18T09:27:32.306Z,5.06
2023-05-18T09:28:32.440Z,5.57
2023-05-18T09:29:33.871Z,4.49
2023-05-18T09:30:32.659Z,4.99
2023-05-18T09:31:32.758Z,4.65
2023-05-18T09:32:32.835Z,5.15
2023-05-18T09:33:32.896Z,5.52
2023-05-18T09:34:32.908Z,4.41
2023-05-18T09:35:33.114Z,4.61
2023-05-18T09:36:33.005Z,4.59
2023-05-18T09:37:33.045Z,4.92
2023-05-18T09:38:33.083Z,4.94
2023-05-18T09:39:33.113Z,5.18
2023-05-18T09:40:33.173Z,4.62
2023-05-18T09:41:33.200Z,4.41
2023-05-18T09:42:33.258Z,4.61
2023-05-18T09:43:33.328Z,3.89
2023-05-18T09:44:33.425Z,4.23
2023-05-18T09:45:33.524Z,4.30
2023-05-18T09:46:33.509Z,3.96
2023-05-18T09:47:33.760Z,4.28
2023-05-18T09:48:33.872Z,3.95
2023-05-18T09:49:33.948Z,3.87
2023-05-18T09:50:34.131Z,3.64
2023-05-18T09:51:34.273Z,4.19
2023-05-18T09:52:34.526Z,3.98
2023-05-18T09:53:34.646Z,3.91
2023-05-18T09:54:34.987Z,3.66
2023-05-18T09:55:35.042Z,3.50
2023-05-18T09:56:35.198Z,3.98
2023-05-18T09:57:35.405Z,3.75
2023-05-18T09:58:35.544Z,3.80
2023-05-18T09:59:35.716Z,3.42
2023-05-18T10:00:35.854Z,4.26
2023-05-18T10:01:36.009Z,3.80
2023-05-18T10:02:36.119Z,3.69
2023-05-18T10:03:36.305Z,4.35
2023-05-18T10:04:36.566Z,4.11
2023-05-18T10:05:36.904Z,4.24
2023-05-18T10:06:36.685Z,4.31
2023-05-18T10:07:36.733Z,3.51
2023-05-18T10:08:36.761Z,4.30
2023-05-18T10:09:36.771Z,3.83
2023-05-18T10:10:36.854Z,4.24
2023-05-18T10:11:36.900Z,3.12
2023-05-18T10:12:36.902Z,3.64
2023-05-18T10:13:36.943Z,3.83
2023-05-18T10:14:36.972Z,3.25
2023-05-18T10:15:37.009Z,3.15
2023-05-18T10:16:37.100Z,3.15
2023-05-18T10:17:37.233Z,3.65
2023-05-18T10:18:37.151Z,3.46
2023-05-18T10:19:37.140Z,3.42
2023-05-18T10:20:37.165Z,3.12
2023-05-18T10:21:37.247Z,4.03
2023-05-18T10:22:37.216Z,3.08
2023-05-18T10:23:37.258Z,3.51
2023-05-18T10:24:37.256Z,3.32
2023-05-18T10:25:37.275Z,3.13
2023-05-18T10:26:37.308Z,3.21
2023-05-18T10:27:37.386Z,2.88
2023-05-18T10:28:37.517Z,3.33
2023-05-18T10:29:37.768Z,3.52
2023-05-18T10:30:37.968Z,3.13
2023-05-18T10:31:38.100Z,2.58
2023-05-18T10:32:38.293Z,3.02
2023-05-18T10:33:38.515Z,3.03
2023-05-18T10:34:38.550Z,3.01
2023-05-18T10:35:38.714Z,3.21
2023-05-18T10:36:38.925Z,2.83
2023-05-18T10:37:39.089Z,2.50
2023-05-18T10:38:39.284Z,2.87
2023-05-18T10:39:39.485Z,2.47
2023-05-18T10:40:39.641Z,2.63
2023-05-18T10:41:39.752Z,3.23
2023-05-18T10:42:39.946Z,3.14
2023-05-18T10:43:40.074Z,2.67
2023-05-18T10:44:40.254Z,2.47
2023-05-18T10:45:40.508Z,3.49
2023-05-18T10:46:40.657Z,3.95
2023-05-18T10:47:40.951Z,3.77
2023-05-18T10:48:40.738Z,3.18
2023-05-18T10:49:40.707Z,3.43
2023-05-18T10:50:40.727Z,4.08
2023-05-18T10:51:40.731Z,3.58
2023-05-18T10:52:40.775Z,2.65
2023-05-18T10:53:40.775Z,3.02
2023-05-18T10:54:40.798Z,3.99
2023-05-18T10:55:40.813Z,3.06
2023-05-18T10:56:40.824Z,3.29
2023-05-18T10:57:40.842Z,2.49
2023-05-18T10:58:40.813Z,2.85
2023-05-18T10:59:42.575Z,2.74
2023-05-18T11:00:40.825Z,3.54
2023-05-18T11:01:40.922Z,3.20
2023-05-18T11:02:40.889Z,3.11
2023-05-18T11:03:40.867Z,3.07
2023-05-18T11:04:40.951Z,2.99
2023-05-18T11:05:40.886Z,3.13
2023-05-18T11:06:40.917Z,2.73
2023-05-18T11:07:40.913Z,3.53
2023-05-18T11:08:40.925Z,2.81
2023-05-18T11:09:40.956Z,2.57
2023-05-18T11:10:40.944Z,1.80
2023-05-18T11:11:40.960Z,2.55
2023-05-18T11:12:40.896Z,2.57
2023-05-18T11:13:40.933Z,2.30
2023-05-18T11:14:40.915Z,2.59
2023-05-18T11:15:40.933Z,2.24
2023-05-18T11:16:40.967Z,2.31
2023-05-18T11:17:41.028Z,2.33
2023-05-18T11:18:41.050Z,2.51
2023-05-18T11:19:41.032Z,3.25
2023-05-18T11:20:41.145Z,2.92
2023-05-18T11:21:41.088Z,3.02
2023-05-18T11:22:41.124Z,2.79
2023-05-18T11:23:41.139Z,2.66
2023-05-18T11:24:41.172Z,2.87
2023-05-18T11:25:41.128Z,2.98
2023-05-18T11:26:41.147Z,3.14
2023-05-18T11:27:41.159Z,2.43
2023-05-18T11:28:41.193Z,2.22
2023-05-18T11:29:41.197Z,2.09
2023-05-18T11:30:41.235Z,2.68
2023-05-18T11:31:41.257Z,2.58
2023-05-18T11:32:41.403Z,2.18
2023-05-18T11:33:41.365Z,2.43
2023-05-18T11:34:41.269Z,2.42
2023-05-18T11:35:41.346Z,2.33
2023-05-18T11:36:41.274Z,2.80
2023-05-18T11:37:41.292Z,2.26
2023-05-18T11:38:41.297Z,2.39
2023-05-18T11:39:51.828Z,2.19
2023-05-18T11:40:42.194Z,2.66
2023-05-18T11:41:41.136Z,2.31
2023-05-18T11:42:41.104Z,2.00
2023-05-18T11:43:41.094Z,2.19
2023-05-18T11:44:41.089Z,2.84
2023-05-18T11:45:41.003Z,2.40
2023-05-18T11:46:40.984Z,2.49
2023-05-18T11:47:41.506Z,2.24
2023-05-18T11:48:41.016Z,2.31
2023-05-18T11:49:40.861Z,3.17
2023-05-18T11:50:40.853Z,2.48
2023-05-18T11:51:40.806Z,2.45
2023-05-18T11:52:40.760Z,2.20
2023-05-18T11:53:40.812Z,2.34
2023-05-18T11:54:40.706Z,1.82
2023-05-18T11:55:40.723Z,2.28
2023-05-18T11:56:40.737Z,2.31
2023-05-18T11:57:40.751Z,2.19
2023-05-18T11:58:40.706Z,2.22
2023-05-18T11:59:40.706Z,2.22
2023-05-18T12:00:40.698Z,2.33
2023-05-18T12:01:40.691Z,2.24
2023-05-18T12:02:40.758Z,2.53
2023-05-18T12:03:40.798Z,2.35
2023-05-18T12:04:40.847Z,2.59
2023-05-18T12:05:40.821Z,2.51
2023-05-18T12:06:40.852Z,2.65
2023-05-18T12:07:40.869Z,2.80
2023-05-18T12:08:40.863Z,2.85
2023-05-18T12:09:40.905Z,2.81
2023-05-18T12:10:40.913Z,2.11
2023-05-18T12:11:40.957Z,2.00
2023-05-18T12:12:40.978Z,2.60
2023-05-18T12:13:40.990Z,2.75
2023-05-18T12:14:41.015Z,2.53
2023-05-18T12:15:40.987Z,2.62
2023-05-18T12:16:41.013Z,2.77
2023-05-18T12:17:41.020Z,2.20
2023-05-18T12:18:40.917Z,1.99
2023-05-18T12:19:40.873Z,2.47
2023-05-18T12:20:40.838Z,2.10
2023-05-18T12:21:40.801Z,2.32
2023-05-18T12:22:40.765Z,2.60
2023-05-18T12:23:40.717Z,2.22
2023-05-18T12:24:40.709Z,2.14
2023-05-18T12:25:40.669Z,2.56
2023-05-18T12:26:40.610Z,2.87
2023-05-18T12:27:40.684Z,2.44
2023-05-18T12:28:40.558Z,2.95
2023-05-18T12:29:40.548Z,2.15
2023-05-18T12:30:40.556Z,1.87
2023-05-18T12:31:40.642Z,2.73
2023-05-18T12:32:40.523Z,2.52
2023-05-18T12:33:40.493Z,1.94
2023-05-18T12:34:40.465Z,2.54
2023-05-18T12:35:40.441Z,2.48
2023-05-18T12:36:40.446Z,2.42
2023-05-18T12:37:45.129Z,2.44
2023-05-18T12:38:41.346Z,2.71
2023-05-18T12:39:40.289Z,2.12
2023-05-18T12:40:40.245Z,2.55
2023-05-18T12:41:40.182Z,2.52
2023-05-18T12:42:40.140Z,2.73
2023-05-18T12:43:40.096Z,2.42
2023-05-18T12:44:40.107Z,2.15
2023-05-18T12:45:40.017Z,2.57
2023-05-18T12:46:40.017Z,3.09
2023-05-18T12:47:39.936Z,2.57
2023-05-18T12:48:39.812Z,2.15
2023-05-18T12:49:39.776Z,2.36
2023-05-18T12:50:39.706Z,2.59
2023-05-18T12:51:39.668Z,3.73
2023-05-18T12:52:39.593Z,3.10
2023-05-18T12:53:39.551Z,2.71
2023-05-18T12:54:39.493Z,2.57
2023-05-18T12:55:39.481Z,2.86
2023-05-18T12:56:39.372Z,2.61
2023-05-18T12:57:39.357Z,2.51
2023-05-18T12:58:39.387Z,3.05
2023-05-18T12:59:39.307Z,2.68
2023-05-18T13:00:39.285Z,3.29
2023-05-18T13:01:39.311Z,2.54
2023-05-18T13:02:39.328Z,2.66
2023-05-18T13:03:39.358Z,2.84
2023-05-18T13:04:39.122Z,2.38
2023-05-18T13:05:39.080Z,2.45
2023-05-18T13:06:39.032Z,2.37
2023-05-18T13:07:38.988Z,2.39
2023-05-18T13:08:39.006Z,3.17
2023-05-18T13:09:38.935Z,2.83
2023-05-18T13:10:38.884Z,2.32
2023-05-18T13:11:38.884Z,3.06
2023-05-18T13:12:38.828Z,2.38
2023-05-18T13:13:38.776Z,2.15
2023-05-18T13:14:38.758Z,2.96
2023-05-18T13:15:38.748Z,2.92
2023-05-18T13:16:38.675Z,2.54
2023-05-18T13:17:38.628Z,2.48
2023-05-18T13:18:38.620Z,2.15
2023-05-18T13:19:38.534Z,2.41